<?xml version="1.0" encoding="UTF-8" standalone="no" ?>
<gpx xmlns="http://www.topografix.com/GPX/1/1" xmlns:xsi="http://www.w3.org/2001/XMLSchema-instance" xsi:schemaLocation="http://www.topografix.com/GPX/1/1 http://www.topografix.com/GPX/1/1/gpx.xsd" version="1.1" creator="VisuGPX - https://www.visugpx.com">
  <metadata>
    <name>gr70 etape4</name>
    <desc><![CDATA[4 première étape]]></desc>
  </metadata>
  <trk>
    <name><![CDATA[gr70 etape4_3]]></name>
    <trkseg>
      <trkpt lat="44.88564" lon="3.91334">
        <ele>894.008</ele>
        <time>2016-06-07T19:50:13Z</time>
      </trkpt>
      <trkpt lat="44.88574" lon="3.91297">
        <ele>902.485</ele>
        <time>2016-06-07T19:50:33Z</time>
      </trkpt>
      <trkpt lat="44.88576" lon="3.9125">
        <ele>908.246</ele>
        <time>2016-06-07T19:50:53Z</time>
      </trkpt>
      <trkpt lat="44.88583" lon="3.91204">
        <ele>917.027</ele>
        <time>2016-06-07T19:51:13Z</time>
      </trkpt>
      <trkpt lat="44.88574" lon="3.91179">
        <ele>923.265</ele>
        <time>2016-06-07T19:51:33Z</time>
      </trkpt>
      <trkpt lat="44.88545" lon="3.91153">
        <ele>931.263</ele>
        <time>2016-06-07T19:51:53Z</time>
      </trkpt>
      <trkpt lat="44.88574" lon="3.91154">
        <ele>931.475</ele>
        <time>2016-06-07T19:52:13Z</time>
      </trkpt>
      <trkpt lat="44.88612" lon="3.91146">
        <ele>937.035</ele>
        <time>2016-06-07T19:52:33Z</time>
      </trkpt>
      <trkpt lat="44.8862" lon="3.91127">
        <ele>939.276</ele>
        <time>2016-06-07T19:52:53Z</time>
      </trkpt>
      <trkpt lat="44.88615" lon="3.91031">
        <ele>948.418</ele>
        <time>2016-06-07T19:53:13Z</time>
      </trkpt>
      <trkpt lat="44.88617" lon="3.90905">
        <ele>955.298</ele>
        <time>2016-06-07T19:53:33Z</time>
      </trkpt>
      <trkpt lat="44.88622" lon="3.90862">
        <ele>956.017</ele>
        <time>2016-06-07T19:53:53Z</time>
      </trkpt>
      <trkpt lat="44.88613" lon="3.90815">
        <ele>955.408</ele>
        <time>2016-06-07T19:54:13Z</time>
      </trkpt>
      <trkpt lat="44.88619" lon="3.90792">
        <ele>955.264</ele>
        <time>2016-06-07T19:54:33Z</time>
      </trkpt>
      <trkpt lat="44.88622" lon="3.90715">
        <ele>953.885</ele>
        <time>2016-06-07T19:54:53Z</time>
      </trkpt>
      <trkpt lat="44.88616" lon="3.90661">
        <ele>954.686</ele>
        <time>2016-06-07T19:55:13Z</time>
      </trkpt>
      <trkpt lat="44.88592" lon="3.90618">
        <ele>949.584</ele>
        <time>2016-06-07T19:55:33Z</time>
      </trkpt>
      <trkpt lat="44.88582" lon="3.90572">
        <ele>946.472</ele>
        <time>2016-06-07T19:55:53Z</time>
      </trkpt>
      <trkpt lat="44.88588" lon="3.90523">
        <ele>948.734</ele>
        <time>2016-06-07T19:56:13Z</time>
      </trkpt>
      <trkpt lat="44.88572" lon="3.9049">
        <ele>950.634</ele>
        <time>2016-06-07T19:56:33Z</time>
      </trkpt>
      <trkpt lat="44.88611" lon="3.90359">
        <ele>954.115</ele>
        <time>2016-06-07T19:56:53Z</time>
      </trkpt>
      <trkpt lat="44.88636" lon="3.90276">
        <ele>961.087</ele>
        <time>2016-06-07T19:57:13Z</time>
      </trkpt>
      <trkpt lat="44.88639" lon="3.90243">
        <ele>964.742</ele>
        <time>2016-06-07T19:57:33Z</time>
      </trkpt>
      <trkpt lat="44.88637" lon="3.90217">
        <ele>967.326</ele>
        <time>2016-06-07T19:57:53Z</time>
      </trkpt>
      <trkpt lat="44.88629" lon="3.90187">
        <ele>969.608</ele>
        <time>2016-06-07T19:58:13Z</time>
      </trkpt>
      <trkpt lat="44.88631" lon="3.90161">
        <ele>972.791</ele>
        <time>2016-06-07T19:58:33Z</time>
      </trkpt>
      <trkpt lat="44.88641" lon="3.90125">
        <ele>976.732</ele>
        <time>2016-06-07T19:58:53Z</time>
      </trkpt>
      <trkpt lat="44.88636" lon="3.90109">
        <ele>978.123</ele>
        <time>2016-06-07T19:59:13Z</time>
      </trkpt>
      <trkpt lat="44.88597" lon="3.90072">
        <ele>979.811</ele>
        <time>2016-06-07T19:59:33Z</time>
      </trkpt>
      <trkpt lat="44.88591" lon="3.89993">
        <ele>984.289</ele>
        <time>2016-06-07T19:59:53Z</time>
      </trkpt>
      <trkpt lat="44.88559" lon="3.898">
        <ele>990.991</ele>
        <time>2016-06-07T20:00:13Z</time>
      </trkpt>
      <trkpt lat="44.88522" lon="3.89635">
        <ele>990.151</ele>
        <time>2016-06-07T20:00:33Z</time>
      </trkpt>
      <trkpt lat="44.88523" lon="3.89584">
        <ele>989.272</ele>
        <time>2016-06-07T20:00:53Z</time>
      </trkpt>
      <trkpt lat="44.8853" lon="3.8954">
        <ele>989.522</ele>
        <time>2016-06-07T20:01:13Z</time>
      </trkpt>
      <trkpt lat="44.88526" lon="3.89512">
        <ele>990.062</ele>
        <time>2016-06-07T20:01:33Z</time>
      </trkpt>
      <trkpt lat="44.88526" lon="3.89512">
        <ele>990.008</ele>
        <time>2016-06-07T20:01:53Z</time>
      </trkpt>
      <trkpt lat="44.88461" lon="3.89322">
        <ele>992.708</ele>
        <time>2019-03-25T16:29:31Z</time>
      </trkpt>
      <trkpt lat="44.88416" lon="3.89257">
        <ele>988.555</ele>
        <time>2019-03-25T16:29:51Z</time>
      </trkpt>
      <trkpt lat="44.88295" lon="3.89123">
        <ele>976.236</ele>
        <time>2019-03-25T16:30:11Z</time>
      </trkpt>
      <trkpt lat="44.88261" lon="3.8906">
        <ele>979.097</ele>
        <time>2016-06-07T20:03:33Z</time>
      </trkpt>
      <trkpt lat="44.88276" lon="3.89011">
        <ele>972.795</ele>
        <time>2016-06-07T20:03:53Z</time>
      </trkpt>
      <trkpt lat="44.88334" lon="3.89004">
        <ele>967.683</ele>
        <time>2016-06-07T20:04:13Z</time>
      </trkpt>
      <trkpt lat="44.88389" lon="3.88999">
        <ele>976.195</ele>
        <time>2019-03-25T16:31:31Z</time>
      </trkpt>
      <trkpt lat="44.88364" lon="3.88973">
        <ele>975.555</ele>
        <time>2019-03-25T16:31:51Z</time>
      </trkpt>
      <trkpt lat="44.88359" lon="3.88945">
        <ele>978.446</ele>
        <time>2019-03-25T16:32:11Z</time>
      </trkpt>
      <trkpt lat="44.88391" lon="3.88907">
        <ele>989.192</ele>
        <time>2019-03-25T16:32:31Z</time>
      </trkpt>
      <trkpt lat="44.88394" lon="3.88849">
        <ele>994.073</ele>
        <time>2019-03-25T16:32:51Z</time>
      </trkpt>
      <trkpt lat="44.88453" lon="3.8876">
        <ele>1002.02</ele>
        <time>2019-03-25T16:33:11Z</time>
      </trkpt>
      <trkpt lat="44.88507" lon="3.88637">
        <ele>1007.708</ele>
        <time>2019-03-25T16:33:31Z</time>
      </trkpt>
      <trkpt lat="44.88503" lon="3.88586">
        <ele>1008.082</ele>
        <time>2019-03-25T16:33:51Z</time>
      </trkpt>
      <trkpt lat="44.88538" lon="3.88558">
        <ele>1008.923</ele>
        <time>2019-03-25T16:34:11Z</time>
      </trkpt>
      <trkpt lat="44.88565" lon="3.88431">
        <ele>1014.084</ele>
        <time>2019-03-25T16:34:31Z</time>
      </trkpt>
      <trkpt lat="44.88566" lon="3.88394">
        <ele>1014.332</ele>
        <time>2019-03-25T16:34:51Z</time>
      </trkpt>
      <trkpt lat="44.88671" lon="3.88361">
        <ele>1013.07</ele>
        <time>2019-03-25T16:35:11Z</time>
      </trkpt>
      <trkpt lat="44.88663" lon="3.88286">
        <ele>1015.432</ele>
        <time>2019-03-25T16:35:31Z</time>
      </trkpt>
      <trkpt lat="44.88676" lon="3.88241">
        <ele>1018.782</ele>
        <time>2019-03-25T16:35:51Z</time>
      </trkpt>
      <trkpt lat="44.88749" lon="3.88242">
        <ele>1020.543</ele>
        <time>2016-06-07T20:07:33Z</time>
      </trkpt>
      <trkpt lat="44.88746" lon="3.8812">
        <ele>1027.974</ele>
        <time>2016-06-07T20:07:53Z</time>
      </trkpt>
      <trkpt lat="44.88716" lon="3.88072">
        <ele>1029.156</ele>
        <time>2019-03-25T16:36:51Z</time>
      </trkpt>
      <trkpt lat="44.88631" lon="3.88044">
        <ele>1027.721</ele>
        <time>2019-03-25T16:37:11Z</time>
      </trkpt>
      <trkpt lat="44.88572" lon="3.88002">
        <ele>1028.208</ele>
        <time>2016-06-07T20:08:53Z</time>
      </trkpt>
      <trkpt lat="44.88559" lon="3.87702">
        <ele>1037.23</ele>
        <time>2016-06-07T20:09:13Z</time>
      </trkpt>
      <trkpt lat="44.88563" lon="3.87671">
        <ele>1039.241</ele>
        <time>2019-03-25T16:38:11Z</time>
      </trkpt>
      <trkpt lat="44.885" lon="3.8757">
        <ele>1042.552</ele>
        <time>2019-03-25T16:38:31Z</time>
      </trkpt>
      <trkpt lat="44.88445" lon="3.87571">
        <ele>1042.04</ele>
        <time>2016-06-07T20:10:13Z</time>
      </trkpt>
      <trkpt lat="44.88431" lon="3.87463">
        <ele>1045.538</ele>
        <time>2016-06-07T20:10:33Z</time>
      </trkpt>
      <trkpt lat="44.8841" lon="3.87403">
        <ele>1045.49</ele>
        <time>2016-06-07T20:10:53Z</time>
      </trkpt>
      <trkpt lat="44.88428" lon="3.87242">
        <ele>1046.93</ele>
        <time>2016-06-07T20:11:13Z</time>
      </trkpt>
      <trkpt lat="44.8846" lon="3.87114">
        <ele>1044.521</ele>
        <time>2016-06-07T20:11:33Z</time>
      </trkpt>
      <trkpt lat="44.88431" lon="3.86946">
        <ele>1047.035</ele>
        <time>2016-06-07T20:11:53Z</time>
      </trkpt>
      <trkpt lat="44.88413" lon="3.86693">
        <ele>1053.086</ele>
        <time>2016-06-07T20:12:13Z</time>
      </trkpt>
      <trkpt lat="44.88346" lon="3.8633">
        <ele>1063.514</ele>
        <time>2016-06-07T20:12:33Z</time>
      </trkpt>
      <trkpt lat="44.88252" lon="3.86141">
        <ele>1071.808</ele>
        <time>2019-03-25T16:41:31Z</time>
      </trkpt>
      <trkpt lat="44.88198" lon="3.85942">
        <ele>1076.986</ele>
        <time>2019-03-25T16:41:51Z</time>
      </trkpt>
      <trkpt lat="44.88153" lon="3.85655">
        <ele>1087.777</ele>
        <time>2019-03-25T16:42:11Z</time>
      </trkpt>
      <trkpt lat="44.88074" lon="3.85373">
        <ele>1083.838</ele>
        <time>2016-06-07T20:13:53Z</time>
      </trkpt>
      <trkpt lat="44.88069" lon="3.85236">
        <ele>1081.856</ele>
        <time>2016-06-07T20:14:13Z</time>
      </trkpt>
      <trkpt lat="44.88044" lon="3.85072">
        <ele>1090.334</ele>
        <time>2019-03-25T16:43:11Z</time>
      </trkpt>
      <trkpt lat="44.88013" lon="3.84978">
        <ele>1095.776</ele>
        <time>2019-03-25T16:43:31Z</time>
      </trkpt>
      <trkpt lat="44.88026" lon="3.8491">
        <ele>1092.916</ele>
        <time>2019-03-25T16:43:51Z</time>
      </trkpt>
      <trkpt lat="44.87995" lon="3.84849">
        <ele>1092.997</ele>
        <time>2019-03-25T16:44:11Z</time>
      </trkpt>
      <trkpt lat="44.8798" lon="3.84766">
        <ele>1090.623</ele>
        <time>2019-03-25T16:44:31Z</time>
      </trkpt>
      <trkpt lat="44.88036" lon="3.84743">
        <ele>1086.583</ele>
        <time>2016-06-07T20:16:33Z</time>
      </trkpt>
      <trkpt lat="44.88042" lon="3.84729">
        <ele>1086.411</ele>
        <time>2016-06-07T20:16:53Z</time>
      </trkpt>
      <trkpt lat="44.88039" lon="3.84632">
        <ele>1088.708</ele>
        <time>2016-06-07T20:17:13Z</time>
      </trkpt>
      <trkpt lat="44.88054" lon="3.84618">
        <ele>1088.855</ele>
        <time>2016-06-07T20:17:33Z</time>
      </trkpt>
      <trkpt lat="44.88101" lon="3.84607">
        <ele>1089.296</ele>
        <time>2016-06-07T20:17:53Z</time>
      </trkpt>
      <trkpt lat="44.88153" lon="3.84556">
        <ele>1093.057</ele>
        <time>2016-06-07T20:18:13Z</time>
      </trkpt>
      <trkpt lat="44.88163" lon="3.84524">
        <ele>1094.445</ele>
        <time>2016-06-07T20:18:33Z</time>
      </trkpt>
      <trkpt lat="44.88181" lon="3.84472">
        <ele>1100.543</ele>
        <time>2016-06-07T20:18:53Z</time>
      </trkpt>
      <trkpt lat="44.88207" lon="3.84419">
        <ele>1103.995</ele>
        <time>2016-06-07T20:19:13Z</time>
      </trkpt>
      <trkpt lat="44.88261" lon="3.84346">
        <ele>1109.985</ele>
        <time>2016-06-07T20:19:33Z</time>
      </trkpt>
      <trkpt lat="44.88263" lon="3.84345">
        <ele>1110.086</ele>
        <time>2016-06-07T20:19:53Z</time>
      </trkpt>
      <trkpt lat="44.88295" lon="3.84279">
        <ele>1110.252</ele>
        <time>2016-06-07T20:20:13Z</time>
      </trkpt>
      <trkpt lat="44.88324" lon="3.84241">
        <ele>1111.553</ele>
        <time>2016-06-07T20:20:33Z</time>
      </trkpt>
      <trkpt lat="44.88362" lon="3.84201">
        <ele>1115.408</ele>
        <time>2016-06-07T20:20:53Z</time>
      </trkpt>
      <trkpt lat="44.88434" lon="3.84099">
        <ele>1127.708</ele>
        <time>2016-06-07T20:21:13Z</time>
      </trkpt>
      <trkpt lat="44.88453" lon="3.84053">
        <ele>1128.358</ele>
        <time>2016-06-07T20:21:33Z</time>
      </trkpt>
      <trkpt lat="44.88457" lon="3.83969">
        <ele>1126.549</ele>
        <time>2019-03-25T16:50:11Z</time>
      </trkpt>
      <trkpt lat="44.88503" lon="3.83736">
        <ele>1115.39</ele>
        <time>2019-03-25T16:50:31Z</time>
      </trkpt>
      <trkpt lat="44.88523" lon="3.83561">
        <ele>1119.528</ele>
        <time>2019-03-25T16:50:51Z</time>
      </trkpt>
      <trkpt lat="44.88567" lon="3.83393">
        <ele>1122.976</ele>
        <time>2016-06-07T20:23:13Z</time>
      </trkpt>
      <trkpt lat="44.88571" lon="3.83348">
        <ele>1126.838</ele>
        <time>2016-06-07T20:23:33Z</time>
      </trkpt>
      <trkpt lat="44.88583" lon="3.83282">
        <ele>1131.668</ele>
        <time>2016-06-07T20:23:53Z</time>
      </trkpt>
      <trkpt lat="44.88585" lon="3.83225">
        <ele>1133.839</ele>
        <time>2016-06-07T20:24:13Z</time>
      </trkpt>
      <trkpt lat="44.88592" lon="3.83149">
        <ele>1132.736</ele>
        <time>2016-06-07T20:24:33Z</time>
      </trkpt>
      <trkpt lat="44.88601" lon="3.83135">
        <ele>1132.417</ele>
        <time>2016-06-07T20:24:53Z</time>
      </trkpt>
      <trkpt lat="44.88606" lon="3.83082">
        <ele>1134.118</ele>
        <time>2016-06-07T20:25:13Z</time>
      </trkpt>
      <trkpt lat="44.88605" lon="3.83048">
        <ele>1136.208</ele>
        <time>2016-06-07T20:25:33Z</time>
      </trkpt>
      <trkpt lat="44.88617" lon="3.82953">
        <ele>1137.916</ele>
        <time>2016-06-07T20:25:53Z</time>
      </trkpt>
      <trkpt lat="44.88619" lon="3.82813">
        <ele>1140.537</ele>
        <time>2016-06-07T20:26:13Z</time>
      </trkpt>
      <trkpt lat="44.88611" lon="3.82755">
        <ele>1142.848</ele>
        <time>2016-06-07T20:26:33Z</time>
      </trkpt>
      <trkpt lat="44.88596" lon="3.82707">
        <ele>1147.486</ele>
        <time>2016-06-07T20:26:53Z</time>
      </trkpt>
      <trkpt lat="44.88594" lon="3.82666">
        <ele>1149.924</ele>
        <time>2016-06-07T20:27:13Z</time>
      </trkpt>
      <trkpt lat="44.88613" lon="3.8261">
        <ele>1150.976</ele>
        <time>2016-06-07T20:27:33Z</time>
      </trkpt>
      <trkpt lat="44.88624" lon="3.82561">
        <ele>1151.926</ele>
        <time>2016-06-07T20:27:53Z</time>
      </trkpt>
      <trkpt lat="44.88639" lon="3.82536">
        <ele>1151.097</ele>
        <time>2016-06-07T20:28:13Z</time>
      </trkpt>
      <trkpt lat="44.88654" lon="3.82487">
        <ele>1148.354</ele>
        <time>2016-06-07T20:28:33Z</time>
      </trkpt>
      <trkpt lat="44.88658" lon="3.82425">
        <ele>1150.356</ele>
        <time>2016-06-07T20:28:53Z</time>
      </trkpt>
      <trkpt lat="44.88673" lon="3.82315">
        <ele>1146.811</ele>
        <time>2016-06-07T20:29:13Z</time>
      </trkpt>
      <trkpt lat="44.88695" lon="3.82284">
        <ele>1144.108</ele>
        <time>2016-06-07T20:29:33Z</time>
      </trkpt>
      <trkpt lat="44.88718" lon="3.82237">
        <ele>1142.698</ele>
        <time>2016-06-07T20:29:53Z</time>
      </trkpt>
      <trkpt lat="44.88746" lon="3.82221">
        <ele>1143.099</ele>
        <time>2016-06-07T20:30:13Z</time>
      </trkpt>
      <trkpt lat="44.88815" lon="3.81992">
        <ele>1151.97</ele>
        <time>2016-06-07T20:30:33Z</time>
      </trkpt>
      <trkpt lat="44.88793" lon="3.81884">
        <ele>1153.118</ele>
        <time>2016-06-07T20:30:53Z</time>
      </trkpt>
      <trkpt lat="44.88815" lon="3.81797">
        <ele>1155.656</ele>
        <time>2016-06-07T20:31:13Z</time>
      </trkpt>
      <trkpt lat="44.88834" lon="3.81762">
        <ele>1157.078</ele>
        <time>2016-06-07T20:31:33Z</time>
      </trkpt>
      <trkpt lat="44.88843" lon="3.81549">
        <ele>1156.858</ele>
        <time>2016-06-07T20:31:53Z</time>
      </trkpt>
      <trkpt lat="44.8884" lon="3.81409">
        <ele>1158.829</ele>
        <time>2016-06-07T20:32:13Z</time>
      </trkpt>
      <trkpt lat="44.88862" lon="3.81372">
        <ele>1159.031</ele>
        <time>2016-06-07T20:32:33Z</time>
      </trkpt>
      <trkpt lat="44.889" lon="3.8129">
        <ele>1162.561</ele>
        <time>2016-06-07T20:32:53Z</time>
      </trkpt>
      <trkpt lat="44.88934" lon="3.81235">
        <ele>1167.307</ele>
        <time>2016-06-07T20:33:13Z</time>
      </trkpt>
      <trkpt lat="44.88942" lon="3.81154">
        <ele>1175.208</ele>
        <time>2016-06-07T20:33:33Z</time>
      </trkpt>
      <trkpt lat="44.88966" lon="3.8096">
        <ele>1191.976</ele>
        <time>2016-06-07T20:33:53Z</time>
      </trkpt>
      <trkpt lat="44.88983" lon="3.80902">
        <ele>1195.597</ele>
        <time>2016-06-07T20:34:13Z</time>
      </trkpt>
      <trkpt lat="44.88974" lon="3.80802">
        <ele>1204.838</ele>
        <time>2016-06-07T20:34:33Z</time>
      </trkpt>
      <trkpt lat="44.88978" lon="3.80719">
        <ele>1204.756</ele>
        <time>2016-06-07T20:34:53Z</time>
      </trkpt>
      <trkpt lat="44.8895" lon="3.80655">
        <ele>1205.554</ele>
        <time>2016-06-07T20:35:13Z</time>
      </trkpt>
      <trkpt lat="44.88931" lon="3.80553">
        <ele>1205.026</ele>
        <time>2016-06-07T20:35:33Z</time>
      </trkpt>
      <trkpt lat="44.88934" lon="3.80501">
        <ele>1204.876</ele>
        <time>2016-06-07T20:35:53Z</time>
      </trkpt>
      <trkpt lat="44.88926" lon="3.80457">
        <ele>1206.067</ele>
        <time>2016-06-07T20:36:13Z</time>
      </trkpt>
      <trkpt lat="44.88945" lon="3.80412">
        <ele>1206.831</ele>
        <time>2016-06-07T20:36:33Z</time>
      </trkpt>
      <trkpt lat="44.88984" lon="3.80287">
        <ele>1204.861</ele>
        <time>2016-06-07T20:36:53Z</time>
      </trkpt>
      <trkpt lat="44.89" lon="3.80204">
        <ele>1205.007</ele>
        <time>2016-06-07T20:37:13Z</time>
      </trkpt>
      <trkpt lat="44.88999" lon="3.80166">
        <ele>1205.108</ele>
        <time>2016-06-07T20:37:33Z</time>
      </trkpt>
      <trkpt lat="44.8892" lon="3.80115">
        <ele>1209.736</ele>
        <time>2016-06-07T20:37:53Z</time>
      </trkpt>
      <trkpt lat="44.88949" lon="3.79968">
        <ele>1209.287</ele>
        <time>2016-06-07T20:38:13Z</time>
      </trkpt>
      <trkpt lat="44.88992" lon="3.7963">
        <ele>1212.758</ele>
        <time>2016-06-07T20:38:33Z</time>
      </trkpt>
      <trkpt lat="44.89002" lon="3.79608">
        <ele>1212.956</ele>
        <time>2016-06-07T20:38:53Z</time>
      </trkpt>
      <trkpt lat="44.89039" lon="3.7958">
        <ele>1212.154</ele>
        <time>2016-06-07T20:39:13Z</time>
      </trkpt>
      <trkpt lat="44.89044" lon="3.79555">
        <ele>1213.036</ele>
        <time>2016-06-07T20:39:33Z</time>
      </trkpt>
      <trkpt lat="44.89048" lon="3.79457">
        <ele>1215.376</ele>
        <time>2016-06-07T20:39:53Z</time>
      </trkpt>
      <trkpt lat="44.89056" lon="3.79432">
        <ele>1215.527</ele>
        <time>2016-06-07T20:40:13Z</time>
      </trkpt>
      <trkpt lat="44.89001" lon="3.79187">
        <ele>1218.263</ele>
        <time>2016-06-07T20:40:33Z</time>
      </trkpt>
      <trkpt lat="44.88969" lon="3.79097">
        <ele>1217.944</ele>
        <time>2016-06-07T20:40:53Z</time>
      </trkpt>
      <trkpt lat="44.88834" lon="3.79003">
        <ele>1217.018</ele>
        <time>2016-06-07T20:41:13Z</time>
      </trkpt>
      <trkpt lat="44.88794" lon="3.79019">
        <ele>1216.908</ele>
        <time>2016-06-07T20:41:33Z</time>
      </trkpt>
      <trkpt lat="44.88682" lon="3.7904">
        <ele>1218.039</ele>
        <time>2016-06-07T20:41:53Z</time>
      </trkpt>
      <trkpt lat="44.88559" lon="3.79058">
        <ele>1218.99</ele>
        <time>2016-06-07T20:42:13Z</time>
      </trkpt>
      <trkpt lat="44.88443" lon="3.79083">
        <ele>1214.041</ele>
        <time>2016-06-07T20:42:33Z</time>
      </trkpt>
      <trkpt lat="44.88329" lon="3.79136">
        <ele>1212.259</ele>
        <time>2019-03-25T17:10:51Z</time>
      </trkpt>
      <trkpt lat="44.88107" lon="3.79221">
        <ele>1206.917</ele>
        <time>2016-06-07T20:43:13Z</time>
      </trkpt>
      <trkpt lat="44.88025" lon="3.7927">
        <ele>1204.269</ele>
        <time>2016-06-07T20:43:33Z</time>
      </trkpt>
      <trkpt lat="44.87842" lon="3.79401">
        <ele>1193.149</ele>
        <time>2016-06-07T20:43:53Z</time>
      </trkpt>
      <trkpt lat="44.87812" lon="3.79444">
        <ele>1192.86</ele>
        <time>2016-06-07T20:44:13Z</time>
      </trkpt>
      <trkpt lat="44.87684" lon="3.79581">
        <ele>1193.074</ele>
        <time>2016-06-07T20:44:33Z</time>
      </trkpt>
      <trkpt lat="44.87611" lon="3.7964">
        <ele>1193.056</ele>
        <time>2016-06-07T20:44:53Z</time>
      </trkpt>
      <trkpt lat="44.87572" lon="3.79654">
        <ele>1192.621</ele>
        <time>2016-06-07T20:45:13Z</time>
      </trkpt>
      <trkpt lat="44.87361" lon="3.79777">
        <ele>1193.908</ele>
        <time>2016-06-07T20:45:33Z</time>
      </trkpt>
      <trkpt lat="44.87207" lon="3.79868">
        <ele>1190.55</ele>
        <time>2016-06-07T20:45:53Z</time>
      </trkpt>
      <trkpt lat="44.87076" lon="3.79967">
        <ele>1179.871</ele>
        <time>2016-06-07T20:46:13Z</time>
      </trkpt>
      <trkpt lat="44.87031" lon="3.80007">
        <ele>1179.092</ele>
        <time>2016-06-07T20:46:33Z</time>
      </trkpt>
      <trkpt lat="44.86899" lon="3.80099">
        <ele>1172.56</ele>
        <time>2016-06-07T20:46:53Z</time>
      </trkpt>
      <trkpt lat="44.86867" lon="3.80126">
        <ele>1171.278</ele>
        <time>2016-06-07T20:47:13Z</time>
      </trkpt>
      <trkpt lat="44.86741" lon="3.80188">
        <ele>1168.08</ele>
        <time>2016-06-07T20:47:33Z</time>
      </trkpt>
      <trkpt lat="44.86686" lon="3.80226">
        <ele>1167.01</ele>
        <time>2016-06-07T20:47:53Z</time>
      </trkpt>
      <trkpt lat="44.86525" lon="3.80371">
        <ele>1160.381</ele>
        <time>2016-06-07T20:48:13Z</time>
      </trkpt>
      <trkpt lat="44.86491" lon="3.80389">
        <ele>1159.347</ele>
        <time>2016-06-07T20:48:33Z</time>
      </trkpt>
      <trkpt lat="44.86459" lon="3.80426">
        <ele>1160.829</ele>
        <time>2016-06-07T20:48:53Z</time>
      </trkpt>
      <trkpt lat="44.8644" lon="3.80492">
        <ele>1162.321</ele>
        <time>2016-06-07T20:49:13Z</time>
      </trkpt>
      <trkpt lat="44.86343" lon="3.8071">
        <ele>1155.908</ele>
        <time>2016-06-07T20:49:33Z</time>
      </trkpt>
      <trkpt lat="44.86273" lon="3.8081">
        <ele>1152.867</ele>
        <time>2016-06-07T20:49:53Z</time>
      </trkpt>
      <trkpt lat="44.86222" lon="3.80877">
        <ele>1152.098</ele>
        <time>2016-06-07T20:50:13Z</time>
      </trkpt>
      <trkpt lat="44.86193" lon="3.80938">
        <ele>1151.399</ele>
        <time>2016-06-07T20:50:33Z</time>
      </trkpt>
      <trkpt lat="44.86121" lon="3.80991">
        <ele>1150.327</ele>
        <time>2016-06-07T20:50:53Z</time>
      </trkpt>
      <trkpt lat="44.8608" lon="3.81019">
        <ele>1151.255</ele>
        <time>2016-06-07T20:51:13Z</time>
      </trkpt>
      <trkpt lat="44.86027" lon="3.81069">
        <ele>1151.597</ele>
        <time>2016-06-07T20:51:33Z</time>
      </trkpt>
      <trkpt lat="44.86006" lon="3.811">
        <ele>1150.927</ele>
        <time>2016-06-07T20:51:53Z</time>
      </trkpt>
      <trkpt lat="44.85984" lon="3.81148">
        <ele>1150.978</ele>
        <time>2016-06-07T20:52:13Z</time>
      </trkpt>
      <trkpt lat="44.85954" lon="3.81177">
        <ele>1150.058</ele>
        <time>2016-06-07T20:52:33Z</time>
      </trkpt>
      <trkpt lat="44.85901" lon="3.81196">
        <ele>1149.052</ele>
        <time>2016-06-07T20:52:53Z</time>
      </trkpt>
      <trkpt lat="44.8585" lon="3.81201">
        <ele>1148.917</ele>
        <time>2016-06-07T20:53:13Z</time>
      </trkpt>
      <trkpt lat="44.858" lon="3.81222">
        <ele>1148.008</ele>
        <time>2016-06-07T20:53:33Z</time>
      </trkpt>
      <trkpt lat="44.85748" lon="3.81234">
        <ele>1146.528</ele>
        <time>2016-06-07T20:53:53Z</time>
      </trkpt>
      <trkpt lat="44.85685" lon="3.81268">
        <ele>1145.059</ele>
        <time>2016-06-07T20:54:13Z</time>
      </trkpt>
      <trkpt lat="44.85592" lon="3.81338">
        <ele>1145.99</ele>
        <time>2016-06-07T20:54:33Z</time>
      </trkpt>
      <trkpt lat="44.85532" lon="3.81358">
        <ele>1145.098</ele>
        <time>2016-06-07T20:54:53Z</time>
      </trkpt>
      <trkpt lat="44.85474" lon="3.81401">
        <ele>1142.626</ele>
        <time>2016-06-07T20:55:13Z</time>
      </trkpt>
      <trkpt lat="44.85368" lon="3.8146">
        <ele>1143.088</ele>
        <time>2016-06-07T20:55:33Z</time>
      </trkpt>
      <trkpt lat="44.85309" lon="3.81496">
        <ele>1141.138</ele>
        <time>2016-06-07T20:55:53Z</time>
      </trkpt>
      <trkpt lat="44.85173" lon="3.81568">
        <ele>1138.659</ele>
        <time>2016-06-07T20:56:13Z</time>
      </trkpt>
      <trkpt lat="44.8514" lon="3.81598">
        <ele>1139.673</ele>
        <time>2016-06-07T20:56:33Z</time>
      </trkpt>
      <trkpt lat="44.85104" lon="3.81597">
        <ele>1139.385</ele>
        <time>2016-06-07T20:56:53Z</time>
      </trkpt>
      <trkpt lat="44.85047" lon="3.81713">
        <ele>1139.013</ele>
        <time>2016-06-07T20:57:13Z</time>
      </trkpt>
      <trkpt lat="44.84993" lon="3.81796">
        <ele>1139.208</ele>
        <time>2016-06-07T20:57:33Z</time>
      </trkpt>
      <trkpt lat="44.84951" lon="3.81948">
        <ele>1136.03</ele>
        <time>2016-06-07T20:57:53Z</time>
      </trkpt>
      <trkpt lat="44.84919" lon="3.82007">
        <ele>1137.831</ele>
        <time>2016-06-07T20:58:13Z</time>
      </trkpt>
      <trkpt lat="44.84903" lon="3.82052">
        <ele>1138.132</ele>
        <time>2016-06-07T20:58:33Z</time>
      </trkpt>
      <trkpt lat="44.84888" lon="3.82178">
        <ele>1134.63</ele>
        <time>2016-06-07T20:58:53Z</time>
      </trkpt>
      <trkpt lat="44.8488" lon="3.82256">
        <ele>1134.568</ele>
        <time>2016-06-07T20:59:13Z</time>
      </trkpt>
      <trkpt lat="44.84832" lon="3.82337">
        <ele>1129.73</ele>
        <time>2016-06-07T20:59:33Z</time>
      </trkpt>
      <trkpt lat="44.84805" lon="3.8237">
        <ele>1127.11</ele>
        <time>2016-06-07T20:59:53Z</time>
      </trkpt>
      <trkpt lat="44.84724" lon="3.82566">
        <ele>1116.531</ele>
        <time>2016-06-07T21:00:13Z</time>
      </trkpt>
      <trkpt lat="44.84699" lon="3.8262">
        <ele>1110.924</ele>
        <time>2016-06-07T21:00:33Z</time>
      </trkpt>
      <trkpt lat="44.84647" lon="3.82694">
        <ele>1104.004</ele>
        <time>2016-06-07T21:00:53Z</time>
      </trkpt>
      <trkpt lat="44.84622" lon="3.82726">
        <ele>1102.914</ele>
        <time>2016-06-07T21:01:13Z</time>
      </trkpt>
      <trkpt lat="44.84613" lon="3.82742">
        <ele>1102.308</ele>
        <time>2016-06-07T21:01:33Z</time>
      </trkpt>
      <trkpt lat="44.8461" lon="3.82763">
        <ele>1102.925</ele>
        <time>2016-06-07T21:01:53Z</time>
      </trkpt>
      <trkpt lat="44.84579" lon="3.82781">
        <ele>1102.086</ele>
        <time>2016-06-07T21:02:13Z</time>
      </trkpt>
      <trkpt lat="44.84539" lon="3.82816">
        <ele>1099.617</ele>
        <time>2016-06-07T21:02:33Z</time>
      </trkpt>
      <trkpt lat="44.8448" lon="3.82876">
        <ele>1095.935</ele>
        <time>2016-06-07T21:02:53Z</time>
      </trkpt>
      <trkpt lat="44.8446" lon="3.8289">
        <ele>1094.633</ele>
        <time>2016-06-07T21:03:13Z</time>
      </trkpt>
      <trkpt lat="44.8439" lon="3.8296">
        <ele>1093.645</ele>
        <time>2016-06-07T21:03:33Z</time>
      </trkpt>
      <trkpt lat="44.84378" lon="3.8298">
        <ele>1094.185</ele>
        <time>2016-06-07T21:03:53Z</time>
      </trkpt>
      <trkpt lat="44.84374" lon="3.83001">
        <ele>1095.586</ele>
        <time>2016-06-07T21:04:13Z</time>
      </trkpt>
      <trkpt lat="44.84306" lon="3.82993">
        <ele>1096.484</ele>
        <time>2016-06-07T21:04:33Z</time>
      </trkpt>
      <trkpt lat="44.84298" lon="3.82984">
        <ele>1096.207</ele>
        <time>2016-06-07T21:04:53Z</time>
      </trkpt>
      <trkpt lat="44.84265" lon="3.82998">
        <ele>1098.817</ele>
        <time>2016-06-07T21:05:13Z</time>
      </trkpt>
      <trkpt lat="44.84194" lon="3.82977">
        <ele>1096.508</ele>
        <time>2016-06-07T21:05:33Z</time>
      </trkpt>
      <trkpt lat="44.84168" lon="3.8298">
        <ele>1097.231</ele>
        <time>2016-06-07T21:05:53Z</time>
      </trkpt>
      <trkpt lat="44.84137" lon="3.82992">
        <ele>1096.652</ele>
        <time>2016-06-07T21:06:13Z</time>
      </trkpt>
      <trkpt lat="44.84107" lon="3.83021">
        <ele>1097.963</ele>
        <time>2016-06-07T21:06:33Z</time>
      </trkpt>
      <trkpt lat="44.84083" lon="3.83039">
        <ele>1096.871</ele>
        <time>2016-06-07T21:06:53Z</time>
      </trkpt>
      <trkpt lat="44.84065" lon="3.83062">
        <ele>1097.079</ele>
        <time>2016-06-07T21:07:13Z</time>
      </trkpt>
      <trkpt lat="44.84041" lon="3.83072">
        <ele>1094.551</ele>
        <time>2016-06-07T21:07:33Z</time>
      </trkpt>
      <trkpt lat="44.84026" lon="3.8309">
        <ele>1093.381</ele>
        <time>2016-06-07T21:07:53Z</time>
      </trkpt>
      <trkpt lat="44.84008" lon="3.8314">
        <ele>1096.772</ele>
        <time>2016-06-07T21:08:13Z</time>
      </trkpt>
      <trkpt lat="44.83963" lon="3.83188">
        <ele>1097.619</ele>
        <time>2016-06-07T21:08:33Z</time>
      </trkpt>
      <trkpt lat="44.83944" lon="3.8322">
        <ele>1099.609</ele>
        <time>2016-06-07T21:08:53Z</time>
      </trkpt>
      <trkpt lat="44.83899" lon="3.83265">
        <ele>1099.819</ele>
        <time>2016-06-07T21:09:13Z</time>
      </trkpt>
      <trkpt lat="44.83854" lon="3.83284">
        <ele>1099.208</ele>
        <time>2016-06-07T21:09:33Z</time>
      </trkpt>
      <trkpt lat="44.8383" lon="3.83279">
        <ele>1097.864</ele>
        <time>2016-06-07T21:09:53Z</time>
      </trkpt>
      <trkpt lat="44.83754" lon="3.83283">
        <ele>1097.195</ele>
        <time>2016-06-07T21:10:13Z</time>
      </trkpt>
      <trkpt lat="44.83669" lon="3.83296">
        <ele>1098.616</ele>
        <time>2016-06-07T21:10:33Z</time>
      </trkpt>
      <trkpt lat="44.83526" lon="3.83302">
        <ele>1102.974</ele>
        <time>2016-06-07T21:10:53Z</time>
      </trkpt>
      <trkpt lat="44.83494" lon="3.8332">
        <ele>1104.062</ele>
        <time>2016-06-07T21:11:13Z</time>
      </trkpt>
      <trkpt lat="44.83439" lon="3.83249">
        <ele>1105.054</ele>
        <time>2016-06-07T21:11:33Z</time>
      </trkpt>
      <trkpt lat="44.83396" lon="3.83196">
        <ele>1108.654</ele>
        <time>2016-06-07T21:11:53Z</time>
      </trkpt>
      <trkpt lat="44.83302" lon="3.83104">
        <ele>1114.245</ele>
        <time>2016-06-07T21:12:13Z</time>
      </trkpt>
      <trkpt lat="44.83244" lon="3.83058">
        <ele>1118.267</ele>
        <time>2016-06-07T21:12:33Z</time>
      </trkpt>
      <trkpt lat="44.83191" lon="3.83">
        <ele>1116.981</ele>
        <time>2016-06-07T21:12:53Z</time>
      </trkpt>
      <trkpt lat="44.83172" lon="3.82971">
        <ele>1115.919</ele>
        <time>2016-06-07T21:13:13Z</time>
      </trkpt>
      <trkpt lat="44.83144" lon="3.82938">
        <ele>1114.308</ele>
        <time>2016-06-07T21:13:33Z</time>
      </trkpt>
      <trkpt lat="44.83106" lon="3.8286">
        <ele>1111.899</ele>
        <time>2016-06-07T21:13:53Z</time>
      </trkpt>
      <trkpt lat="44.83063" lon="3.82735">
        <ele>1108.04</ele>
        <time>2016-06-07T21:14:13Z</time>
      </trkpt>
      <trkpt lat="44.83047" lon="3.82694">
        <ele>1109.171</ele>
        <time>2016-06-07T21:14:33Z</time>
      </trkpt>
    </trkseg>
  </trk>
</gpx>